Time;durP1;ratioP1;P1;durP2;ratioP2;P2;SDS_P1;SDS_P2;PMS_P1;PMS_P2;Temp;Humidity;BMP_temperature;BMP_pressure;BME280_temperature;BME280_humidity;BME280_pressure;Samples;Min_cycle;Max_cycle;Signal;HPM_P1;HPM_P2
2023/04/18 04:13:13;;;;;;;11.55;7.75;;;;;;;10.12;100.00;100153.56;5562572;32;277056;-87
2023/04/18 04:16:16;;;;;;;12.32;7.93;;;;;;;10.01;100.00;100155.87;5552629;32;32220;-84
2023/04/18 04:19:20;;;;;;;13.82;7.62;;;;;;;9.95;100.00;100155.25;5557175;32;33771;-84
2023/04/18 04:22:24;;;;;;;11.50;7.75;;;;;;;9.88;100.00;100160.94;5561940;32;34298;-84
2023/04/18 04:25:27;;;;;;;13.15;8.25;;;;;;;9.80;100.00;100167.47;5559223;32;34768;-83
2023/04/18 04:28:30;;;;;;;12.95;8.05;;;;;;;9.73;100.00;100171.38;5559523;32;33081;-84
2023/04/18 04:31:34;;;;;;;11.75;7.95;;;;;;;9.69;100.00;100181.28;5559954;32;34675;-84
2023/04/18 04:34:40;;;;;;;12.55;8.40;;;;;;;9.69;100.00;100175.09;5559763;32;34058;-84
2023/04/18 04:37:43;;;;;;;13.10;8.68;;;;;;;9.68;100.00;100173.38;5564805;32;33644;-84
2023/04/18 04:40:48;;;;;;;11.12;7.40;;;;;;;9.64;100.00;100178.00;5568052;32;34221;-84
2023/04/18 04:43:52;;;;;;;11.68;7.78;;;;;;;9.66;100.00;100178.75;5578069;32;34718;-84
2023/04/18 04:46:56;;;;;;;13.40;8.43;;;;;;;9.67;100.00;100180.47;5560675;32;35112;-84
2023/04/18 04:49:59;;;;;;;13.60;8.10;;;;;;;9.69;100.00;100181.28;5567598;32;34029;-84
2023/04/18 04:53:06;;;;;;;11.20;7.80;;;;;;;9.72;100.00;100182.91;5567859;32;34048;-84
2023/04/18 04:56:08;;;;;;;12.32;7.82;;;;;;;9.76;100.00;100188.91;5577383;32;34028;-84
2023/04/18 04:59:13;;;;;;;10.20;8.13;;;;;;;9.79;100.00;100188.75;5566034;32;33713;-84
2023/04/18 05:02:16;;;;;;;11.63;8.38;;;;;;;9.95;100.00;100187.06;5549075;32;34409;-84
2023/04/18 05:05:19;;;;;;;11.32;8.23;;;;;;;9.94;100.00;100195.06;5562694;32;33611;-83
2023/04/18 05:08:22;;;;;;;10.95;7.78;;;;;;;9.96;100.00;100191.41;5557066;32;34077;-84
2023/04/18 05:11:25;;;;;;;10.30;7.53;;;;;;;10.02;100.00;100192.06;5550842;32;34061;-84
2023/04/18 05:14:27;;;;;;;11.52;8.50;;;;;;;10.17;100.00;100193.06;5562129;32;34767;-84
2023/04/18 05:17:30;;;;;;;11.12;7.28;;;;;;;10.25;100.00;100194.41;5552725;32;34150;-83
2023/04/18 05:20:33;;;;;;;9.70;7.32;;;;;;;10.26;100.00;100195.22;5535655;32;33694;-83
2023/04/18 05:23:36;;;;;;;12.05;8.30;;;;;;;10.42;100.00;100199.75;5539508;32;33785;-84
2023/04/18 05:26:39;;;;;;;10.07;7.65;;;;;;;10.36;100.00;100198.28;5542288;32;33817;-84
2023/04/18 05:29:41;;;;;;;9.48;7.20;;;;;;;10.32;100.00;100202.03;5528633;32;34002;-84
2023/04/18 05:32:44;;;;;;;10.50;7.12;;;;;;;10.28;100.00;100209.28;5528460;32;33868;-84
2023/04/18 05:35:47;;;;;;;9.95;7.50;;;;;;;10.37;100.00;100208.78;5537062;32;34233;-84
2023/04/18 05:38:50;;;;;;;8.88;6.97;;;;;;;10.44;100.00;100204.06;5541256;32;34131;-84
2023/04/18 05:41:53;;;;;;;9.57;7.30;;;;;;;10.57;100.00;100209.56;5540296;32;35235;-84
2023/04/18 05:44:56;;;;;;;11.85;7.37;;;;;;;10.73;100.00;100209.66;5546968;32;33734;-84
2023/04/18 05:47:59;;;;;;;9.75;7.30;;;;;;;10.88;100.00;100205.31;5535872;32;34975;-84
2023/04/18 05:51:02;;;;;;;10.38;6.90;;;;;;;11.09;100.00;100205.09;5531050;32;34581;-84
2023/04/18 05:54:05;;;;;;;11.43;7.80;;;;;;;11.31;100.00;100210.06;5528396;32;34132;-84
2023/04/18 05:57:07;;;;;;;11.35;6.75;;;;;;;11.46;100.00;100215.47;5519326;32;33848;-84
2023/04/18 06:00:11;;;;;;;15.40;7.30;;;;;;;11.60;100.00;100209.38;5549298;32;33848;-83
2023/04/18 06:03:14;;;;;;;11.63;7.32;;;;;;;11.66;100.00;100211.69;5538654;32;33840;-83
2023/04/18 06:06:17;;;;;;;9.43;6.93;;;;;;;11.78;100.00;100215.44;5536639;32;34655;-86
2023/04/18 06:09:20;;;;;;;9.32;6.60;;;;;;;11.78;100.00;100217.25;5522561;32;33968;-85
2023/04/18 06:12:23;;;;;;;9.70;6.87;;;;;;;11.78;100.00;100210.13;5529854;32;33629;-84
2023/04/18 06:15:26;;;;;;;8.93;6.20;;;;;;;11.70;100.00;100215.88;5533899;32;34283;-86
2023/04/18 06:18:29;;;;;;;7.75;6.07;;;;;;;11.75;100.00;100222.72;5536992;32;33771;-85
2023/04/18 06:21:32;;;;;;;8.68;6.85;;;;;;;11.75;100.00;100222.72;5525599;32;36438;-84
2023/04/18 06:24:36;;;;;;;7.65;6.35;;;;;;;11.77;100.00;100224.34;5528486;32;33994;-84
2023/04/18 06:27:39;;;;;;;7.80;6.28;;;;;;;11.85;100.00;100226.56;5527172;32;33983;-84
2023/04/18 06:30:41;;;;;;;7.78;5.62;;;;;;;12.09;100.00;100229.66;5522583;32;34948;-87
2023/04/18 06:33:44;;;;;;;6.80;5.87;;;;;;;12.04;100.00;100229.06;5535879;32;34416;-88
2023/04/18 06:36:48;;;;;;;8.20;5.72;;;;;;;12.07;100.00;100226.22;5535006;32;33775;-89
2023/04/18 06:39:51;;;;;;;7.20;5.53;;;;;;;11.99;100.00;100226.66;5521858;32;33970;-90
2023/04/18 06:42:54;;;;;;;7.20;5.35;;;;;;;12.26;100.00;100233.09;5523617;32;33791;-84
2023/04/18 06:45:57;;;;;;;7.07;5.50;;;;;;;12.52;100.00;100230.69;5529686;32;34534;-84
2023/04/18 06:49:05;;;;;;;8.50;5.12;;;;;;;12.68;100.00;100238.62;5537157;32;34115;-83
2023/04/18 06:52:08;;;;;;;7.03;4.95;;;;;;;12.83;100.00;100238.62;5541346;32;34025;-83
2023/04/18 06:55:12;;;;;;;5.78;4.80;;;;;;;12.97;100.00;100243.94;5536702;32;35029;-83
2023/04/18 06:58:15;;;;;;;5.82;4.68;;;;;;;13.11;100.00;100240.41;5535192;32;33931;-83
2023/04/18 07:01:18;;;;;;;5.57;4.60;;;;;;;13.55;100.00;100240.37;5537779;32;33908;-83
2023/04/18 07:04:22;;;;;;;5.87;4.80;;;;;;;13.80;100.00;100249.44;5541051;32;33746;-84
2023/04/18 07:07:25;;;;;;;5.32;4.35;;;;;;;14.00;100.00;100248.16;5534022;32;34040;-84
2023/04/18 07:10:28;;;;;;;5.22;4.35;;;;;;;13.83;100.00;100249.25;5521105;32;34679;-84
2023/04/18 07:13:31;;;;;;;4.80;4.30;;;;;;;13.67;100.00;100250.25;5527513;32;33712;-84
2023/04/18 07:16:34;;;;;;;5.53;4.05;;;;;;;13.87;100.00;100248.09;5523845;32;33668;-84
2023/04/18 07:19:37;;;;;;;5.05;4.30;;;;;;;14.02;100.00;100249.75;5530310;32;33907;-84
2023/04/18 07:22:40;;;;;;;5.95;4.10;;;;;;;13.99;100.00;100246.44;5528114;32;34464;-84
2023/04/18 07:25:42;;;;;;;6.40;4.30;;;;;;;13.89;100.00;100248.88;5522797;32;33582;-86
2023/04/18 07:28:45;;;;;;;5.10;4.00;;;;;;;13.95;100.00;100247.59;5526702;32;34390;-85
2023/04/18 07:31:48;;;;;;;5.97;4.28;;;;;;;14.05;100.00;100261.16;5523965;32;34966;-83
2023/04/18 07:34:52;;;;;;;4.10;3.70;;;;;;;13.86;100.00;100251.72;5525092;32;33624;-84
2023/04/18 07:37:55;;;;;;;3.72;3.25;;;;;;;13.67;100.00;100255.59;5544624;32;34192;-83
2023/04/18 07:41:00;;;;;;;4.10;3.70;;;;;;;13.80;100.00;100260.13;5523216;32;33505;-85
2023/04/18 07:44:02;;;;;;;4.15;3.55;;;;;;;13.65;100.00;100264.63;5528033;32;34115;-84
2023/04/18 07:47:10;;;;;;;5.93;4.00;;;;;;;13.71;100.00;100262.44;5532350;32;34766;-84
2023/04/18 07:50:12;;;;;;;5.00;3.33;;;;;;;14.02;100.00;100263.09;5527839;32;35612;-86
2023/04/18 07:53:15;;;;;;;4.50;3.53;;;;;;;13.84;100.00;100274.97;5523649;32;33839;-85
2023/04/18 07:56:18;;;;;;;3.47;3.17;;;;;;;13.47;100.00;100273.72;5522787;32;33863;-85
2023/04/18 07:59:21;;;;;;;5.30;3.45;;;;;;;13.40;100.00;100284.81;5527456;32;33655;-84
2023/04/18 08:02:24;;;;;;;4.65;3.47;;;;;;;13.51;100.00;100278.84;5527640;32;34868;-84
2023/04/18 08:05:27;;;;;;;6.18;3.70;;;;;;;14.01;100.00;100287.19;5536898;32;34793;-82
2023/04/18 08:08:30;;;;;;;11.85;3.65;;;;;;;14.60;100.00;100279.75;5529562;32;34225;-84
2023/04/18 08:11:34;;;;;;;6.28;3.78;;;;;;;15.45;100.00;100286.38;5524732;32;33905;-83
2023/04/18 08:14:36;;;;;;;5.18;3.55;;;;;;;15.96;100.00;100281.84;5522008;32;34414;-83
2023/04/18 08:17:41;;;;;;;5.93;3.20;;;;;;;16.09;100.00;100288.00;5523542;32;34318;-84
2023/04/18 08:20:44;;;;;;;3.83;3.30;;;;;;;16.29;98.58;100285.66;5527333;32;33785;-84
2023/04/18 08:23:47;;;;;;;13.40;3.33;;;;;;;16.68;99.27;100283.59;5525938;32;34321;-85
2023/04/18 08:26:50;;;;;;;6.20;3.37;;;;;;;17.15;95.21;100281.84;5516936;32;33820;-83
2023/04/18 08:29:53;;;;;;;7.20;3.35;;;;;;;17.53;93.16;100288.66;5529822;32;34601;-86
2023/04/18 08:32:56;;;;;;;4.82;2.95;;;;;;;17.61;93.54;100285.34;5535020;32;34305;-86
2023/04/18 08:35:59;;;;;;;4.05;2.58;;;;;;;18.45;89.60;100276.69;5522704;32;33680;-86
2023/04/18 08:39:01;;;;;;;7.93;2.50;;;;;;;19.22;80.97;100284.47;5529601;32;32632;-87
2023/04/18 08:42:05;;;;;;;5.97;3.03;;;;;;;18.97;81.28;100278.53;5535050;32;33740;-86
2023/04/18 08:45:08;;;;;;;4.07;2.58;;;;;;;18.84;84.53;100289.50;5525614;32;33750;-86
2023/04/18 08:48:15;;;;;;;4.85;2.80;;;;;;;18.69;80.42;100290.81;5540023;32;34927;-88
2023/04/18 08:51:18;;;;;;;4.18;2.90;;;;;;;18.20;79.35;100294.00;5518197;32;33272;-86
2023/04/18 08:54:21;;;;;;;3.20;2.80;;;;;;;17.74;83.39;100291.44;5528498;32;34507;-86
2023/04/18 08:57:26;;;;;;;7.15;2.87;;;;;;;17.40;86.03;100293.31;5527072;32;34551;-86
2023/04/18 09:00:29;;;;;;;4.82;2.95;;;;;;;17.20;86.17;100290.38;5520518;32;34530;-86
2023/04/18 09:03:38;;;;;;;4.97;3.15;;;;;;;16.95;86.47;100300.31;5524927;32;33693;-86
2023/04/18 09:06:51;;;;;;;6.85;3.28;;;;;;;17.13;86.69;100290.00;5531096;32;34903;-85
2023/04/18 09:09:58;;;;;;;9.63;3.10;;;;;;;17.13;89.35;100292.69;5519542;32;34298;-86
2023/04/18 09:13:03;;;;;;;6.03;2.95;;;;;;;17.29;87.13;100291.50;5544039;32;33537;-86
2023/04/18 09:16:06;;;;;;;6.37;3.75;;;;;;;17.51;82.65;100302.19;5530179;32;32445;-86
2023/04/18 09:19:17;;;;;;;5.40;3.40;;;;;;;17.94;82.17;100301.50;5515220;32;33786;-85
2023/04/18 09:22:20;;;;;;;6.95;3.35;;;;;;;17.97;84.84;100303.94;5515577;32;34330;-85
2023/04/18 09:25:29;;;;;;;10.20;3.30;;;;;;;17.57;86.12;100300.84;5526606;32;34522;-86
2023/04/18 09:28:32;;;;;;;3.37;2.83;;;;;;;17.93;80.41;100300.66;5536632;32;34485;-86
2023/04/18 09:31:58;;;;;;;4.12;3.00;;;;;;;17.42;80.56;100305.63;5546196;32;34640;-87
2023/04/18 09:35:04;;;;;;;3.42;3.10;;;;;;;18.34;80.64;100300.06;5521634;32;33804;-86
2023/04/18 09:38:07;;;;;;;4.78;2.90;;;;;;;19.13;75.68;100291.50;5519880;32;34546;-86
2023/04/18 09:41:11;;;;;;;7.40;2.85;;;;;;;19.80;74.93;100288.34;5520670;32;34073;-87
2023/04/18 09:44:15;;;;;;;5.65;3.12;;;;;;;20.89;71.89;100292.91;5530703;32;34063;-86
2023/04/18 09:47:19;;;;;;;3.47;2.83;;;;;;;21.68;61.18;100294.25;5524597;32;33495;-87
2023/04/18 09:50:21;;;;;;;6.68;3.00;;;;;;;20.80;66.49;100289.19;5535898;32;33558;-87
2023/04/18 09:53:25;;;;;;;5.70;3.20;;;;;;;21.24;62.77;100288.66;5525120;32;34826;-86
2023/04/18 09:56:30;;;;;;;6.00;3.25;;;;;;;20.35;65.37;100282.62;5544327;32;33958;-86
2023/04/18 10:00:13;;;;;;;4.07;3.12;;;;;;;20.06;66.70;100276.22;5516955;32;33616;-86
2023/04/18 10:03:17;;;;;;;3.72;3.10;;;;;;;19.36;68.86;100282.44;5523274;32;34997;-87
2023/04/18 10:06:20;;;;;;;3.25;2.95;;;;;;;19.39;67.56;100283.00;5514313;32;34534;-86
2023/04/18 10:09:23;;;;;;;4.62;3.30;;;;;;;21.02;62.62;100269.16;5522676;32;33749;-87
2023/04/18 10:12:26;;;;;;;2.60;2.40;;;;;;;21.93;58.73;100281.06;5533367;32;34703;-87
2023/04/18 10:15:30;;;;;;;6.20;2.58;;;;;;;20.71;54.33;100270.22;5524241;32;34455;-85
2023/04/18 10:18:35;;;;;;;2.78;2.37;;;;;;;20.23;56.09;100273.81;5536417;32;33366;-87
2023/04/18 10:21:50;;;;;;;2.40;2.20;;;;;;;19.66;56.97;100275.28;5534952;32;34004;-87
2023/04/18 10:24:53;;;;;;;2.80;2.17;;;;;;;19.52;54.54;100276.53;5541598;32;33846;-87
2023/04/18 10:27:57;;;;;;;5.75;2.15;;;;;;;19.23;56.16;100288.03;5553462;32;34142;-87
2023/04/18 10:31:04;;;;;;;4.43;2.42;;;;;;;19.30;56.88;100274.91;5556916;32;34053;-87
2023/04/18 10:34:07;;;;;;;2.92;2.67;;;;;;;19.35;57.32;100280.72;5529435;32;34367;-88
2023/04/18 10:37:11;;;;;;;4.18;2.20;;;;;;;19.59;57.50;100275.00;5537646;32;33441;-87
2023/04/18 10:40:14;;;;;;;2.83;2.45;;;;;;;19.74;54.33;100280.84;5537075;32;33888;-88
2023/04/18 10:43:17;;;;;;;4.82;2.30;;;;;;;19.45;54.24;100281.59;5528770;32;34808;-87
2023/04/18 10:46:20;;;;;;;2.35;1.80;;;;;;;19.19;56.84;100276.69;5532787;32;35236;-87
2023/04/18 10:49:37;;;;;;;4.20;1.92;;;;;;;19.37;51.70;100284.13;5536858;32;33913;-87
2023/04/18 10:52:40;;;;;;;3.75;2.00;;;;;;;19.40;52.73;100278.47;5527918;32;33741;-87
2023/04/18 10:55:53;;;;;;;2.55;2.00;;;;;;;19.37;53.82;100274.22;5522124;32;33089;-87
2023/04/18 10:59:00;;;;;;;2.33;2.00;;;;;;;18.99;52.67;100276.59;5541077;32;33968;-87
2023/04/18 11:02:24;;;;;;;3.85;1.90;;;;;;;18.71;54.78;100267.37;5525650;32;33896;-88
2023/04/18 11:05:27;;;;;;;2.37;1.87;;;;;;;18.92;53.12;100264.69;5533665;26;33651;-86
2023/04/18 11:08:30;;;;;;;3.17;2.20;;;;;;;19.03;53.11;100262.91;5527681;32;33757;-86
2023/04/18 11:11:33;;;;;;;4.15;1.70;;;;;;;18.32;54.45;100262.59;5525909;32;33936;-87
2023/04/18 11:14:45;;;;;;;2.50;2.10;;;;;;;18.90;54.77;100263.09;5519613;32;33739;-87
2023/04/18 11:17:57;;;;;;;2.33;1.80;;;;;;;19.82;49.24;100265.81;5526692;32;34657;-91
2023/04/18 11:21:02;;;;;;;6.55;2.22;;;;;;;19.57;50.94;100259.97;5529832;32;35365;-85
2023/04/18 11:24:05;;;;;;;6.30;2.10;;;;;;;19.55;49.40;100262.78;5538183;26;35019;-87
2023/04/18 11:27:09;;;;;;;3.03;2.10;;;;;;;19.53;50.51;100268.31;5549098;32;34283;-87
2023/04/18 11:30:13;;;;;;;3.78;1.90;;;;;;;19.31;50.87;100269.38;5547016;32;33741;-87
2023/04/18 11:33:16;;;;;;;3.00;2.20;;;;;;;19.05;54.10;100277.06;5553868;32;33737;-87
2023/04/18 11:36:20;;;;;;;8.63;2.10;;;;;;;18.63;53.97;100275.22;5561802;32;34009;-86
2023/04/18 11:39:23;;;;;;;3.65;2.30;;;;;;;17.94;56.90;100269.31;5549541;32;34342;-86
2023/04/18 11:42:29;;;;;;;4.22;2.25;;;;;;;18.28;56.91;100269.19;5548028;32;34974;-86
2023/04/18 11:45:32;;;;;;;2.92;2.15;;;;;;;18.48;57.64;100272.00;5547369;32;33954;-87
2023/04/18 11:48:45;;;;;;;2.87;2.40;;;;;;;18.32;55.73;100271.47;5546773;32;33947;-88
2023/04/18 11:51:48;;;;;;;2.92;2.20;;;;;;;18.28;58.53;100263.81;5548249;32;32281;-88
2023/04/18 11:54:50;;;;;;;2.60;2.20;;;;;;;18.42;57.66;100266.19;5548484;32;33866;-87
2023/04/18 11:57:55;;;;;;;4.15;2.33;;;;;;;18.09;57.58;100262.69;5541860;32;35556;-86
2023/04/18 12:01:14;;;;;;;4.72;2.30;;;;;;;17.79;57.25;100266.88;5546246;32;33990;-88
2023/04/18 12:04:18;;;;;;;4.47;2.45;;;;;;;18.21;55.96;100260.81;5545636;32;34741;-87
2023/04/18 12:07:35;;;;;;;5.00;2.58;;;;;;;18.34;53.96;100259.78;5567872;26;33799;-88
2023/04/18 12:10:46;;;;;;;2.97;2.37;;;;;;;19.23;54.83;100255.78;5523305;32;34010;-88
2023/04/18 12:13:48;;;;;;;2.85;2.20;;;;;;;19.90;51.04;100260.59;5523435;32;34486;-86
2023/04/18 12:16:51;;;;;;;3.42;2.28;;;;;;;20.10;49.55;100255.28;5530669;32;34618;-87
2023/04/18 12:19:54;;;;;;;2.30;2.10;;;;;;;19.40;50.01;100262.31;5525216;32;33875;-87
2023/04/18 12:22:57;;;;;;;2.80;2.20;;;;;;;19.98;48.06;100252.72;5524973;32;33710;-87
2023/04/18 12:26:17;;;;;;;3.40;2.15;;;;;;;20.39;46.50;100252.56;5530795;32;33901;-88
2023/04/18 12:29:20;;;;;;;6.60;2.03;;;;;;;19.55;48.35;100260.09;5541320;32;34196;-86
2023/04/18 12:32:24;;;;;;;3.50;2.17;;;;;;;19.53;49.83;100260.22;5531986;32;33587;-89
2023/04/18 12:35:30;;;;;;;3.80;2.20;;;;;;;18.92;49.57;100253.06;5532694;32;35886;-88
2023/04/18 12:38:34;;;;;;;4.03;2.42;;;;;;;18.37;50.83;100254.13;5532577;32;34932;-89
2023/04/18 12:41:37;;;;;;;6.12;2.10;;;;;;;18.29;51.39;100252.97;5538339;32;33746;-87
2023/04/18 12:44:40;;;;;;;5.12;2.35;;;;;;;18.24;48.95;100257.87;5536726;32;33689;-87
2023/04/18 12:47:45;;;;;;;4.57;2.30;;;;;;;18.18;47.61;100264.63;5544221;32;33832;-88
2023/04/18 12:54:26;;;;;;;3.47;2.17;;;;;;;18.17;44.37;100265.56;4958162;30;20073;-88
2023/04/18 12:57:29;;;;;;;4.68;2.03;;;;;;;17.84;43.84;100259.31;5566725;32;34396;-88
2023/04/18 13:00:33;;;;;;;3.60;1.77;;;;;;;17.66;43.78;100264.37;5561360;32;34024;-87
2023/04/18 13:03:36;;;;;;;4.78;2.25;;;;;;;17.77;42.36;100256.28;5546257;32;33880;-87
2023/04/18 13:06:39;;;;;;;3.67;1.85;;;;;;;18.20;42.97;100256.41;5550570;32;34049;-87
2023/04/18 13:09:42;;;;;;;2.83;2.08;;;;;;;18.43;41.86;100254.47;5549928;32;33817;-86
2023/04/18 13:12:45;;;;;;;3.65;1.95;;;;;;;18.39;41.59;100254.84;5551020;32;33858;-86
2023/04/18 13:15:49;;;;;;;6.35;1.87;;;;;;;18.81;41.97;100256.69;5555921;32;34044;-86
2023/04/18 13:18:52;;;;;;;6.22;2.12;;;;;;;18.93;40.39;100252.94;5554953;32;34431;-86
2023/04/18 13:21:54;;;;;;;4.72;1.90;;;;;;;18.72;40.03;100252.97;5546749;32;34649;-87
2023/04/18 13:24:57;;;;;;;3.90;1.77;;;;;;;18.89;39.90;100254.19;5559132;26;34379;-87
2023/04/18 13:28:00;;;;;;;2.20;1.87;;;;;;;18.74;39.54;100252.84;5531738;32;32482;-87
2023/04/18 13:34:43;;;;;;;5.43;2.20;;;;;;;18.28;40.64;100262.00;1247205;26;21039;-88
2023/04/18 13:53:10;;;;;;;3.28;2.05;;;;;;;18.04;38.39;100259.50;4625264;26;20360;-89
2023/04/18 13:56:21;;;;;;;5.68;2.10;;;;;;;18.22;38.25;100267.03;5543950;32;34681;-89
2023/04/18 13:59:24;;;;;;;4.35;1.62;;;;;;;18.12;39.29;100257.06;5543931;32;34769;-89
2023/04/18 14:02:27;;;;;;;4.70;2.28;;;;;;;18.07;38.15;100266.47;5538149;32;34535;-88
2023/04/18 14:05:30;;;;;;;3.55;2.05;;;;;;;18.10;38.57;100259.00;5550872;32;33707;-88
2023/04/18 14:08:33;;;;;;;3.62;2.10;;;;;;;18.07;37.84;100250.37;5550650;32;34204;-88
2023/04/18 14:11:36;;;;;;;4.75;1.80;;;;;;;17.87;37.63;100255.53;5543688;32;33847;-87
2023/04/18 14:14:39;;;;;;;3.12;2.12;;;;;;;17.96;37.01;100264.66;5545370;32;33781;-87
2023/04/18 14:17:42;;;;;;;6.55;2.05;;;;;;;18.07;37.24;100256.59;5548867;32;34344;-88
2023/04/18 14:20:47;;;;;;;3.92;2.00;;;;;;;18.17;36.52;100254.00;5548800;32;33998;-88
2023/04/18 14:23:51;;;;;;;3.47;1.90;;;;;;;18.40;35.91;100243.16;5550205;32;34092;-88
2023/04/18 14:26:54;;;;;;;4.68;2.20;;;;;;;18.52;35.47;100243.94;5549836;32;34434;-88
2023/04/18 14:29:57;;;;;;;4.12;2.05;;;;;;;18.50;34.95;100253.97;5549806;32;34646;-88
2023/04/18 14:32:59;;;;;;;3.42;1.80;;;;;;;18.40;34.52;100252.03;5550839;32;34735;-87
2023/04/18 14:36:03;;;;;;;4.87;2.25;;;;;;;18.56;34.52;100250.75;5547395;32;34209;-86
2023/04/18 14:39:05;;;;;;;3.20;1.80;;;;;;;18.39;33.55;100242.28;5545512;32;35052;-86
2023/04/18 14:42:08;;;;;;;4.30;1.90;;;;;;;18.47;31.46;100252.38;5547818;32;33812;-85
2023/04/18 14:45:11;;;;;;;6.03;2.05;;;;;;;18.38;32.44;100251.34;5548536;32;35976;-86
2023/04/18 14:48:15;;;;;;;4.53;2.17;;;;;;;18.52;33.19;100251.97;5549179;32;34025;-86
2023/04/18 14:51:18;;;;;;;3.45;1.83;;;;;;;18.50;32.59;100249.41;5550677;32;34148;-86
2023/04/18 14:54:20;;;;;;;2.65;1.90;;;;;;;18.28;32.10;100261.13;5551008;32;33855;-87
2023/04/18 14:57:23;;;;;;;2.58;1.98;;;;;;;18.18;32.71;100253.00;5547517;32;33866;-86
2023/04/18 15:00:27;;;;;;;4.55;1.98;;;;;;;18.27;33.74;100254.06;5549841;32;34122;-87
2023/04/18 15:03:30;;;;;;;4.18;2.20;;;;;;;18.17;34.57;100260.19;5549116;32;33876;-87
2023/04/18 15:06:33;;;;;;;3.22;2.03;;;;;;;17.84;35.36;100256.63;5546862;32;33734;-87
2023/04/18 15:09:37;;;;;;;5.97;2.58;;;;;;;17.65;36.50;100262.66;5548222;32;33891;-86
2023/04/18 15:12:41;;;;;;;4.62;2.60;;;;;;;17.37;36.57;100256.88;5554109;32;33782;-87
2023/04/18 15:15:53;;;;;;;4.37;2.00;;;;;;;17.59;36.33;100253.28;5556228;32;34668;-87
2023/04/18 15:18:56;;;;;;;4.10;2.00;;;;;;;17.49;35.73;100255.88;5550195;32;33812;-87
2023/04/18 15:21:59;;;;;;;4.15;2.42;;;;;;;17.61;35.81;100247.81;5550412;32;33944;-88
2023/04/18 15:25:03;;;;;;;4.53;2.35;;;;;;;17.62;35.93;100249.50;5550491;32;33898;-87
2023/04/18 15:28:06;;;;;;;2.83;2.28;;;;;;;17.79;36.05;100258.84;5549959;32;33749;-88
2023/04/18 15:31:09;;;;;;;2.65;2.20;;;;;;;17.74;36.46;100253.00;5549507;32;33889;-86
2023/04/18 15:34:12;;;;;;;4.95;2.30;;;;;;;17.76;36.10;100246.53;5549251;32;34124;-86
2023/04/18 15:37:15;;;;;;;5.93;2.40;;;;;;;17.69;36.45;100247.19;5551536;32;33811;-87
2023/04/18 15:40:18;;;;;;;3.12;2.50;;;;;;;17.56;36.25;100248.19;5550500;32;34120;-87
